Time;durP1;ratioP1;P1;durP2;ratioP2;P2;SDS_P1;SDS_P2;PMS_P1;PMS_P2;Temp;Humidity;BMP_temperature;BMP_pressure;BME280_temperature;BME280_humidity;BME280_pressure;Samples;Min_cycle;Max_cycle;Signal;HPM_P1;HPM_P2
2021/03/26 00:01:30;;;;;;;18.23;12.27;;;10.30;63.30;;;;;;5039445;28;20052;-63
2021/03/26 00:03:57;;;;;;;21.35;12.15;;;10.30;63.40;;;;;;5052294;28;20033;-64
2021/03/26 00:06:27;;;;;;;20.27;12.00;;;10.30;63.50;;;;;;5051206;28;20068;-64
2021/03/26 00:08:53;;;;;;;21.02;12.98;;;10.20;63.60;;;;;;5051573;28;20159;-63
2021/03/26 00:11:21;;;;;;;16.83;10.73;;;10.20;63.70;;;;;;5048323;28;20025;-64
2021/03/26 00:13:47;;;;;;;16.98;11.75;;;10.20;63.80;;;;;;5051169;28;20395;-64
2021/03/26 00:16:12;;;;;;;19.88;12.32;;;10.10;63.80;;;;;;5055732;28;20111;-64
2021/03/26 00:18:39;;;;;;;18.95;11.85;;;10.10;63.90;;;;;;5054920;28;20406;-64
2021/03/26 00:21:06;;;;;;;19.55;11.98;;;10.10;63.80;;;;;;5047708;28;20025;-64
2021/03/26 00:23:32;;;;;;;19.70;11.88;;;10.10;63.80;;;;;;5045109;28;20025;-64
2021/03/26 00:25:58;;;;;;;20.98;11.60;;;10.10;63.80;;;;;;5049403;28;20119;-64
2021/03/26 00:28:23;;;;;;;18.63;11.48;;;10.00;63.90;;;;;;5045796;28;20435;-64
2021/03/26 00:30:49;;;;;;;17.17;11.93;;;10.00;63.90;;;;;;5048198;28;20044;-63
2021/03/26 00:33:15;;;;;;;22.92;12.38;;;10.00;63.90;;;;;;5051518;28;20036;-63
2021/03/26 00:35:40;;;;;;;20.98;11.65;;;10.00;63.90;;;;;;5059991;28;20028;-64
2021/03/26 00:38:07;;;;;;;17.67;11.38;;;9.90;64.00;;;;;;5049231;28;20112;-64
2021/03/26 00:40:33;;;;;;;18.85;10.73;;;9.90;64.20;;;;;;5050092;28;20170;-63
2021/03/26 00:42:59;;;;;;;24.10;13.35;;;9.90;64.30;;;;;;5049179;28;20140;-63
2021/03/26 00:45:32;;;;;;;18.45;10.32;;;9.90;64.20;;;;;;5040937;28;20040;-63
2021/03/26 00:47:59;;;;;;;22.38;12.95;;;9.90;64.30;;;;;;5045725;28;20028;-63
2021/03/26 00:50:30;;;;;;;18.55;11.10;;;9.90;64.30;;;;;;5048686;28;20055;-64
2021/03/26 00:52:57;;;;;;;18.23;12.52;;;9.90;64.50;;;;;;5063922;28;20037;-64
2021/03/26 00:55:24;;;;;;;18.63;11.85;;;9.90;64.60;;;;;;5064586;28;20124;-64
2021/03/26 00:57:49;;;;;;;17.88;11.90;;;9.90;64.60;;;;;;5044711;28;20068;-65
2021/03/26 01:00:20;;;;;;;16.75;11.35;;;9.90;64.60;;;;;;5045472;28;20064;-65
2021/03/26 01:02:47;;;;;;;22.80;15.05;;;9.80;64.70;;;;;;5041863;28;20021;-64
2021/03/26 01:05:18;;;;;;;17.02;11.02;;;9.90;65.00;;;;;;5047071;28;20418;-64
2021/03/26 01:07:46;;;;;;;22.77;13.98;;;9.80;65.00;;;;;;5045950;28;20623;-63
2021/03/26 01:10:14;;;;;;;17.13;12.50;;;9.90;65.10;;;;;;5049559;28;20098;-64
2021/03/26 01:12:40;;;;;;;18.45;11.25;;;9.90;65.10;;;;;;5049679;28;20483;-63
2021/03/26 01:15:09;;;;;;;20.70;12.25;;;9.90;65.30;;;;;;5049098;28;20167;-63
2021/03/26 01:17:34;;;;;;;17.27;10.55;;;9.90;65.50;;;;;;5049247;28;20056;-63
2021/03/26 01:20:00;;;;;;;22.10;13.75;;;9.90;65.50;;;;;;5049134;28;20189;-64
2021/03/26 01:22:26;;;;;;;18.10;11.95;;;9.90;65.70;;;;;;5049033;28;20033;-63
2021/03/26 01:24:52;;;;;;;19.02;11.48;;;9.90;65.50;;;;;;5064734;28;20029;-64
2021/03/26 01:27:18;;;;;;;18.23;11.23;;;9.90;65.50;;;;;;5045261;28;20111;-64
2021/03/26 01:29:44;;;;;;;19.10;12.18;;;9.90;65.50;;;;;;5049512;28;20040;-64
2021/03/26 01:32:10;;;;;;;23.35;13.15;;;9.80;65.50;;;;;;5040242;28;20102;-63
2021/03/26 01:34:35;;;;;;;18.08;12.02;;;9.80;65.50;;;;;;5049137;28;20117;-62
2021/03/26 01:37:02;;;;;;;18.95;11.43;;;9.80;65.40;;;;;;5049908;28;20108;-63
2021/03/26 01:39:27;;;;;;;19.17;12.15;;;9.80;65.40;;;;;;5053076;28;20037;-63
2021/03/26 01:41:53;;;;;;;19.95;11.60;;;9.70;65.50;;;;;;5045591;28;20099;-63
2021/03/26 01:44:22;;;;;;;22.20;13.02;;;9.70;65.60;;;;;;5053048;28;20439;-63
2021/03/26 01:46:48;;;;;;;24.27;11.75;;;9.70;65.90;;;;;;5047666;28;20047;-63
2021/03/26 01:49:14;;;;;;;18.90;12.18;;;9.70;66.00;;;;;;5048422;28;20390;-63
2021/03/26 01:51:46;;;;;;;20.95;12.68;;;9.70;66.00;;;;;;5049346;28;20120;-63
2021/03/26 01:54:16;;;;;;;21.73;13.27;;;9.60;66.20;;;;;;5042656;28;20025;-63
2021/03/26 01:56:43;;;;;;;20.83;12.75;;;9.70;66.30;;;;;;5055180;28;20116;-63
2021/03/26 01:59:08;;;;;;;25.30;13.35;;;9.70;66.40;;;;;;5049072;28;20047;-63
2021/03/26 02:01:43;;;;;;;24.80;13.25;;;9.80;66.40;;;;;;5056474;28;20037;-63
2021/03/26 02:04:09;;;;;;;21.17;13.00;;;9.80;66.40;;;;;;5064663;28;20036;-63
2021/03/26 02:06:46;;;;;;;23.05;12.60;;;9.90;66.40;;;;;;5053513;28;20404;-64
2021/03/26 02:09:18;;;;;;;20.65;12.75;;;9.80;66.40;;;;;;5061399;28;20051;-64
2021/03/26 02:11:57;;;;;;;20.67;13.35;;;9.90;66.30;;;;;;5046723;28;20128;-65
2021/03/26 02:14:31;;;;;;;23.10;13.88;;;9.90;66.30;;;;;;5061891;28;20036;-64
2021/03/26 02:16:58;;;;;;;22.60;12.90;;;9.90;66.40;;;;;;5050767;28;20443;-63
2021/03/26 02:19:48;;;;;;;19.90;13.43;;;9.90;66.30;;;;;;5053256;28;20052;-64
2021/03/26 02:22:14;;;;;;;21.55;13.80;;;9.80;66.40;;;;;;5042850;28;20029;-63
2021/03/26 02:24:42;;;;;;;21.35;12.20;;;9.80;66.20;;;;;;5046431;28;20021;-63
2021/03/26 02:27:16;;;;;;;19.92;11.90;;;9.80;66.20;;;;;;5053929;28;20032;-63
2021/03/26 02:29:42;;;;;;;23.70;13.50;;;9.70;66.30;;;;;;5042878;28;20063;-63
2021/03/26 02:32:34;;;;;;;22.63;14.13;;;9.70;66.10;;;;;;5049330;28;20053;-64
2021/03/26 02:35:07;;;;;;;25.33;14.82;;;9.60;66.60;;;;;;5053311;28;20305;-64
2021/03/26 02:37:34;;;;;;;20.23;12.85;;;9.60;66.50;;;;;;5051941;28;20028;-64
2021/03/26 02:40:00;;;;;;;22.85;14.25;;;9.60;66.60;;;;;;5048855;28;20100;-64
2021/03/26 02:42:31;;;;;;;21.77;13.85;;;9.60;66.60;;;;;;5054548;28;20467;-63
2021/03/26 02:45:35;;;;;;;20.55;13.57;;;9.50;67.20;;;;;;5073031;28;20070;-63
2021/03/26 02:48:10;;;;;;;22.02;13.85;;;9.50;66.80;;;;;;5037545;28;20077;-63
2021/03/26 02:51:05;;;;;;;22.60;13.98;;;9.50;66.60;;;;;;5052005;28;20041;-63
2021/03/26 02:53:48;;;;;;;23.63;14.63;;;9.40;66.60;;;;;;5047106;28;20419;-64
2021/03/26 02:56:40;;;;;;;21.90;15.63;;;9.40;66.50;;;;;;5031717;28;20025;-63
2021/03/26 02:59:12;;;;;;;23.45;15.52;;;9.30;66.50;;;;;;5046167;28;20080;-63
2021/03/26 03:01:55;;;;;;;36.20;16.88;;;9.30;66.50;;;;;;5048080;28;20041;-63
2021/03/26 03:04:33;;;;;;;25.65;15.02;;;9.30;66.90;;;;;;5037122;28;20033;-63
2021/03/26 03:07:13;;;;;;;22.10;14.02;;;9.20;67.00;;;;;;5061438;28;20024;-63
2021/03/26 03:09:42;;;;;;;23.42;15.38;;;9.20;67.10;;;;;;5054419;28;20024;-63
2021/03/26 03:12:12;;;;;;;21.75;14.68;;;9.30;67.10;;;;;;5051848;28;20116;-63
2021/03/26 03:15:07;;;;;;;21.92;14.75;;;9.20;67.30;;;;;;5048844;28;20062;-63
2021/03/26 03:18:00;;;;;;;24.50;15.43;;;9.20;67.50;;;;;;5048481;28;20522;-63
2021/03/26 03:20:33;;;;;;;25.17;15.45;;;9.20;67.80;;;;;;5047378;28;20110;-63
2021/03/26 03:23:01;;;;;;;26.88;16.63;;;9.30;68.10;;;;;;5052111;28;20029;-64
2021/03/26 03:25:27;;;;;;;25.55;16.67;;;9.30;68.10;;;;;;5051459;28;20025;-64
2021/03/26 03:28:05;;;;;;;27.98;17.00;;;9.40;68.10;;;;;;5050132;28;20651;-64
2021/03/26 03:31:03;;;;;;;28.02;18.83;;;9.30;68.40;;;;;;5042686;28;20104;-64
2021/03/26 03:33:47;;;;;;;27.08;16.55;;;9.30;68.60;;;;;;5049227;28;20025;-64
2021/03/26 03:36:20;;;;;;;29.23;18.48;;;9.40;69.00;;;;;;5050481;28;20117;-63
2021/03/26 03:39:00;;;;;;;29.92;18.30;;;9.40;69.60;;;;;;5046677;28;20114;-64
2021/03/26 03:41:48;;;;;;;28.52;19.50;;;9.40;69.80;;;;;;5050146;28;20021;-64
2021/03/26 03:44:21;;;;;;;27.90;17.55;;;9.50;69.80;;;;;;5043799;28;20382;-64
2021/03/26 03:46:55;;;;;;;27.05;17.90;;;9.60;69.80;;;;;;5042053;28;20025;-63
2021/03/26 03:49:39;;;;;;;30.77;19.85;;;9.70;69.80;;;;;;5050229;28;20579;-63
2021/03/26 03:52:31;;;;;;;32.70;19.42;;;9.80;69.80;;;;;;5066241;28;20059;-63
2021/03/26 03:55:17;;;;;;;28.13;19.50;;;9.80;69.70;;;;;;5045551;28;20099;-64
2021/03/26 03:57:57;;;;;;;31.60;19.50;;;9.80;69.80;;;;;;5050798;28;20100;-64
2021/03/26 04:00:38;;;;;;;26.50;17.45;;;9.90;69.90;;;;;;5055018;28;20363;-64
2021/03/26 04:03:14;;;;;;;32.25;20.80;;;9.90;69.90;;;;;;5031363;28;20033;-63
2021/03/26 04:06:10;;;;;;;27.30;19.23;;;10.00;69.80;;;;;;5036208;28;20025;-64
2021/03/26 04:08:48;;;;;;;31.60;19.92;;;10.00;70.00;;;;;;5042874;28;20029;-64
2021/03/26 04:11:16;;;;;;;28.35;19.73;;;10.10;70.00;;;;;;5042887;28;20140;-63
2021/03/26 04:13:47;;;;;;;28.33;18.38;;;10.20;70.10;;;;;;5030494;28;20033;-63
2021/03/26 04:16:17;;;;;;;32.22;22.02;;;10.20;70.20;;;;;;5049786;28;20467;-63
2021/03/26 04:18:54;;;;;;;28.20;19.17;;;10.20;70.10;;;;;;5051276;28;20145;-64
2021/03/26 04:21:24;;;;;;;28.98;20.42;;;10.20;70.10;;;;;;5049793;28;20151;-64
2021/03/26 04:24:05;;;;;;;33.50;20.75;;;10.30;70.20;;;;;;5046878;28;20036;-64
2021/03/26 04:26:44;;;;;;;32.15;20.55;;;10.30;70.20;;;;;;5044741;28;20029;-64
2021/03/26 04:29:16;;;;;;;31.20;20.55;;;10.20;70.20;;;;;;5052629;28;20048;-64
2021/03/26 04:31:48;;;;;;;33.00;20.90;;;10.30;70.40;;;;;;5060051;28;20040;-63
2021/03/26 04:34:14;;;;;;;36.25;20.73;;;10.30;70.40;;;;;;5036446;28;20033;-63
2021/03/26 04:36:48;;;;;;;29.60;19.83;;;10.40;70.40;;;;;;5050882;28;20620;-64
2021/03/26 04:39:16;;;;;;;;;;;10.40;70.30;;;;;;5051093;28;20122;-63
2021/03/26 04:41:48;;;;;;;28.08;18.27;;;10.50;70.40;;;;;;5046067;28;19920;-64
2021/03/26 04:44:28;;;;;;;31.20;20.23;;;10.50;70.20;;;;;;5047335;28;20067;-63
2021/03/26 04:47:14;;;;;;;30.45;20.20;;;10.50;70.40;;;;;;5038722;28;20034;-63
2021/03/26 04:49:46;;;;;;;33.50;22.17;;;10.50;70.50;;;;;;5048875;28;20360;-64
2021/03/26 04:52:19;;;;;;;31.88;21.05;;;10.50;70.60;;;;;;5050950;28;20729;-63
2021/03/26 04:54:56;;;;;;;29.77;19.55;;;10.60;70.60;;;;;;5050428;28;20405;-64
2021/03/26 04:57:30;;;;;;;30.38;21.55;;;10.60;70.70;;;;;;5059142;28;20536;-64
2021/03/26 05:00:31;;;;;;;32.58;22.17;;;10.60;70.60;;;;;;5043697;28;20033;-64
2021/03/26 05:03:04;;;;;;;32.03;21.15;;;10.60;70.80;;;;;;5046329;28;20171;-64
2021/03/26 05:05:32;;;;;;;;;;;10.70;70.70;;;;;;5051789;28;20320;-64
2021/03/26 05:08:03;;;;;;;30.10;19.35;;;10.80;70.80;;;;;;5049693;28;19955;-63
2021/03/26 05:10:31;;;;;;;32.72;21.65;;;10.70;70.50;;;;;;5049032;28;20021;-62
2021/03/26 05:13:03;;;;;;;33.13;19.77;;;10.80;70.70;;;;;;5048081;28;20025;-63
2021/03/26 05:15:38;;;;;;;30.10;20.63;;;10.70;70.70;;;;;;5040153;28;20395;-63
2021/03/26 05:18:07;;;;;;;31.02;21.38;;;10.80;70.80;;;;;;5047084;28;20479;-64
2021/03/26 05:20:52;;;;;;;31.05;19.95;;;10.80;70.70;;;;;;5047916;28;20039;-63
2021/03/26 05:23:30;;;;;;;31.83;21.38;;;10.80;70.80;;;;;;5049585;28;20033;-63
2021/03/26 05:25:59;;;;;;;29.40;19.27;;;10.80;70.80;;;;;;5047371;28;20033;-63
2021/03/26 05:28:28;;;;;;;31.65;22.38;;;10.90;70.60;;;;;;5046698;28;20467;-63
2021/03/26 05:30:56;;;;;;;30.83;21.30;;;10.80;71.00;;;;;;5043389;28;20026;-63
2021/03/26 05:33:37;;;;;;;29.85;20.98;;;10.80;71.10;;;;;;5034240;28;20041;-63
2021/03/26 05:36:06;;;;;;;35.78;22.25;;;10.80;71.20;;;;;;5046510;28;20867;-63
2021/03/26 05:38:53;;;;;;;29.60;19.83;;;10.90;71.10;;;;;;5054127;28;20124;-63
2021/03/26 05:41:49;;;;;;;30.63;19.75;;;10.90;71.10;;;;;;5049463;28;20021;-63
2021/03/26 05:44:26;;;;;;;31.75;21.52;;;11.00;71.10;;;;;;5057405;28;20420;-63
2021/03/26 05:47:20;;;;;;;33.20;19.75;;;11.00;71.00;;;;;;5043465;28;20017;-63
2021/03/26 05:50:04;;;;;;;33.83;19.30;;;11.00;71.10;;;;;;5063179;28;20094;-63
2021/03/26 05:52:46;;;;;;;27.92;19.15;;;11.10;71.00;;;;;;5067034;28;20032;-63
2021/03/26 05:55:45;;;;;;;31.75;21.23;;;11.10;70.90;;;;;;5049441;28;20116;-62
2021/03/26 05:58:32;;;;;;;32.53;21.50;;;11.20;71.10;;;;;;5049002;28;20486;-63
2021/03/26 06:01:09;;;;;;;32.17;21.65;;;11.20;71.00;;;;;;5045672;28;20029;-63
2021/03/26 06:03:57;;;;;;;31.88;22.52;;;11.20;71.00;;;;;;5048327;28;20036;-63
2021/03/26 06:06:53;;;;;;;32.03;21.42;;;11.30;71.10;;;;;;5048853;28;20083;-62
2021/03/26 06:10:03;;;;;;;33.47;21.63;;;11.30;71.00;;;;;;5048861;28;20034;-62
2021/03/26 06:12:50;;;;;;;38.53;23.17;;;11.40;71.10;;;;;;5053608;28;20033;-62
2021/03/26 06:15:39;;;;;;;33.58;22.85;;;11.40;71.20;;;;;;5046053;28;20440;-63
2021/03/26 06:18:42;;;;;;;30.77;19.90;;;11.40;71.00;;;;;;5031725;28;20033;-63
2021/03/26 06:21:38;;;;;;;31.52;18.48;;;11.40;71.00;;;;;;5052042;28;20931;-63
2021/03/26 06:24:25;;;;;;;27.50;18.73;;;11.60;71.10;;;;;;5039820;28;20525;-62
2021/03/26 06:27:16;;;;;;;34.80;21.20;;;11.60;70.90;;;;;;5037565;28;20026;-63
2021/03/26 06:29:59;;;;;;;32.63;21.90;;;11.70;70.80;;;;;;5049448;28;20025;-63
2021/03/26 06:33:06;;;;;;;33.25;20.08;;;11.70;70.80;;;;;;5044255;28;20048;-62
2021/03/26 06:35:50;;;;;;;37.13;22.55;;;11.80;70.70;;;;;;5036101;28;20094;-63
2021/03/26 06:38:31;;;;;;;;;;;11.90;70.50;;;;;;5049343;28;20037;-63
2021/03/26 06:41:05;;;;;;;38.58;24.88;;;12.00;70.50;;;;;;5048891;28;19909;-63
2021/03/26 06:43:55;;;;;;;34.88;22.10;;;12.00;70.20;;;;;;5049605;28;20047;-63
2021/03/26 06:46:30;;;;;;;33.65;21.42;;;12.00;70.30;;;;;;5049348;28;20025;-63
2021/03/26 06:49:29;;;;;;;31.27;20.33;;;12.00;70.30;;;;;;5029637;28;20557;-63
2021/03/26 06:52:10;;;;;;;34.50;21.70;;;12.00;70.30;;;;;;5038583;28;20025;-63
2021/03/26 06:54:53;;;;;;;35.70;23.67;;;12.10;70.10;;;;;;5054297;28;20053;-63
2021/03/26 06:58:05;;;;;;;33.33;21.50;;;12.10;69.90;;;;;;5049766;28;20057;-63
2021/03/26 07:00:59;;;;;;;38.90;23.83;;;12.20;69.90;;;;;;5037782;28;20057;-63
2021/03/26 07:03:30;;;;;;;36.75;21.98;;;12.30;69.70;;;;;;5049990;28;20040;-63
2021/03/26 07:06:06;;;;;;;34.67;20.23;;;12.20;69.40;;;;;;5037947;28;20025;-64
2021/03/26 07:09:00;;;;;;;35.58;23.00;;;12.30;69.40;;;;;;5053093;28;20044;-64
2021/03/26 07:11:56;;;;;;;34.42;21.27;;;12.30;69.20;;;;;;5041964;28;20029;-64
2021/03/26 07:14:30;;;;;;;35.17;22.38;;;12.40;69.20;;;;;;5048443;28;20029;-63
2021/03/26 07:17:21;;;;;;;36.30;23.98;;;12.50;68.80;;;;;;5055411;28;20115;-63
2021/03/26 07:19:49;;;;;;;33.90;22.30;;;12.50;68.50;;;;;;5036065;28;20452;-63
2021/03/26 07:22:57;;;;;;;39.85;25.45;;;12.60;68.50;;;;;;5035559;28;20037;-63
2021/03/26 07:25:41;;;;;;;35.28;23.42;;;12.50;68.50;;;;;;5048438;28;20111;-63
2021/03/26 07:28:37;;;;;;;35.85;22.85;;;12.60;68.30;;;;;;5068128;28;20122;-64
2021/03/26 07:31:06;;;;;;;40.35;26.67;;;12.60;68.30;;;;;;5050542;28;20017;-64
2021/03/26 07:33:51;;;;;;;36.65;24.88;;;12.70;67.80;;;;;;5052514;28;20033;-64
2021/03/26 07:36:27;;;;;;;34.58;23.00;;;12.60;67.90;;;;;;5036022;28;20048;-63
2021/03/26 07:39:29;;;;;;;37.30;23.85;;;12.70;67.60;;;;;;5052261;28;20029;-64
2021/03/26 07:42:01;;;;;;;32.47;20.35;;;12.70;67.80;;;;;;5038380;28;20037;-63
2021/03/26 07:44:54;;;;;;;37.75;23.98;;;12.70;67.40;;;;;;5047536;28;20065;-63
2021/03/26 07:47:30;;;;;;;35.45;21.42;;;12.80;67.30;;;;;;5042727;28;20029;-64
2021/03/26 07:50:17;;;;;;;32.58;20.95;;;13.00;66.70;;;;;;5049396;28;20104;-64
2021/03/26 07:53:16;;;;;;;32.47;22.85;;;13.20;66.90;;;;;;5043813;28;20471;-64
2021/03/26 07:56:03;;;;;;;34.90;22.10;;;13.90;64.90;;;;;;5048573;28;20036;-64
2021/03/26 07:59:06;;;;;;;33.38;22.35;;;14.80;63.00;;;;;;5044795;28;20036;-64
2021/03/26 08:02:10;;;;;;;33.92;23.05;;;16.10;60.20;;;;;;5058537;28;20539;-64
2021/03/26 08:05:00;;;;;;;27.20;19.83;;;18.80;53.20;;;;;;5041470;28;20028;-64
2021/03/26 08:08:02;;;;;;;32.90;23.13;;;21.00;47.60;;;;;;5042160;28;20054;-64
2021/03/26 08:10:30;;;;;;;26.17;19.77;;;21.50;45.10;;;;;;5046439;28;20044;-65
2021/03/26 08:13:11;;;;;;;28.73;21.00;;;21.70;45.20;;;;;;5032750;28;20163;-65
2021/03/26 08:16:12;;;;;;;26.38;19.67;;;21.90;43.60;;;;;;5038231;28;20144;-64
2021/03/26 08:18:57;;;;;;;30.17;20.73;;;21.50;43.60;;;;;;5044182;28;20406;-64
2021/03/26 08:21:40;;;;;;;26.38;19.08;;;21.10;43.80;;;;;;5038479;28;20060;-64
2021/03/26 08:24:24;;;;;;;;;;;21.30;44.40;;;;;;5045592;28;20032;-64
2021/03/26 08:27:11;;;;;;;28.73;18.88;;;22.50;42.30;;;;;;5038073;28;19971;-64
2021/03/26 08:29:51;;;;;;;20.98;16.70;;;24.70;39.70;;;;;;5042603;28;20446;-64
2021/03/26 08:32:31;;;;;;;25.77;19.40;;;26.50;36.90;;;;;;5040730;28;20032;-64
2021/03/26 08:35:12;;;;;;;23.00;18.25;;;28.10;34.30;;;;;;5038074;28;20101;-65
2021/03/26 08:38:07;;;;;;;22.20;17.42;;;29.20;31.90;;;;;;5044152;28;20062;-62
2021/03/26 08:40:52;;;;;;;22.15;17.67;;;29.60;30.80;;;;;;5043069;28;20028;-63
2021/03/26 08:43:19;;;;;;;22.83;17.88;;;30.10;29.80;;;;;;5043610;28;21589;-63
2021/03/26 08:46:08;;;;;;;24.17;18.77;;;30.40;29.50;;;;;;5062737;28;20547;-63
2021/03/26 08:48:44;;;;;;;22.65;18.20;;;30.70;29.00;;;;;;5048111;28;20409;-64
2021/03/26 08:51:27;;;;;;;23.52;18.38;;;31.00;28.70;;;;;;5051880;28;20526;-65
2021/03/26 08:54:41;;;;;;;20.80;16.80;;;30.50;28.90;;;;;;5046639;28;20126;-63
2021/03/26 08:57:14;;;;;;;20.23;15.55;;;30.50;29.10;;;;;;5045183;28;20037;-63
2021/03/26 09:00:24;;;;;;;18.98;14.98;;;31.10;28.90;;;;;;5059122;28;20028;-64
2021/03/26 09:02:49;;;;;;;19.42;14.98;;;31.90;28.20;;;;;;5042086;28;20060;-64
2021/03/26 09:05:57;;;;;;;21.92;15.70;;;32.30;27.30;;;;;;5049044;28;20049;-65
2021/03/26 09:08:39;;;;;;;19.70;16.10;;;32.50;27.40;;;;;;5060622;28;20497;-63
2021/03/26 09:11:10;;;;;;;19.50;14.23;;;32.80;27.00;;;;;;5045034;28;20383;-64
2021/03/26 09:14:06;;;;;;;15.55;13.50;;;32.80;27.20;;;;;;5043613;28;20037;-64
2021/03/26 09:16:39;;;;;;;16.70;13.98;;;32.80;27.10;;;;;;5029380;28;20032;-65
2021/03/26 09:19:11;;;;;;;18.27;13.20;;;32.90;26.80;;;;;;5043281;28;20130;-65
2021/03/26 09:21:58;;;;;;;18.95;14.65;;;32.60;27.40;;;;;;5037548;28;20332;-64
2021/03/26 09:24:42;;;;;;;16.20;12.05;;;32.50;27.40;;;;;;5049563;28;20048;-64
2021/03/26 09:27:26;;;;;;;17.35;11.52;;;31.60;26.80;;;;;;5038530;28;20504;-64
2021/03/26 09:30:31;;;;;;;18.60;13.25;;;29.70;28.10;;;;;;5049288;28;20040;-64
2021/03/26 09:33:08;;;;;;;16.88;12.48;;;27.90;29.60;;;;;;5042030;28;20043;-63
2021/03/26 09:35:37;;;;;;;16.77;12.43;;;27.10;30.30;;;;;;5046490;28;20112;-63
2021/03/26 09:38:06;;;;;;;15.57;11.77;;;26.10;31.00;;;;;;5036238;28;20041;-63
2021/03/26 09:40:54;;;;;;;18.05;12.43;;;25.30;32.10;;;;;;5064680;28;20152;-63
2021/03/26 09:43:42;;;;;;;15.45;12.15;;;24.40;33.00;;;;;;5046290;28;20036;-63
2021/03/26 09:46:14;;;;;;;16.08;11.30;;;23.30;34.70;;;;;;5048005;28;20033;-64
2021/03/26 09:48:58;;;;;;;20.60;14.30;;;22.60;36.20;;;;;;5049930;28;20139;-65
2021/03/26 09:51:37;;;;;;;18.35;12.35;;;22.30;37.00;;;;;;5048207;28;20021;-64
2021/03/26 09:54:29;;;;;;;22.65;13.82;;;22.30;37.30;;;;;;5048545;28;20028;-65
2021/03/26 09:57:41;;;;;;;16.80;10.82;;;22.70;36.90;;;;;;5045564;28;20033;-65
2021/03/26 10:00:21;;;;;;;20.23;11.93;;;23.30;36.60;;;;;;5029562;28;20067;-65
2021/03/26 10:02:59;;;;;;;19.30;11.38;;;24.10;35.80;;;;;;5045908;28;20029;-65
2021/03/26 10:05:33;;;;;;;17.67;12.07;;;24.90;35.20;;;;;;5044812;28;20032;-65
2021/03/26 10:08:30;;;;;;;16.95;11.65;;;25.40;33.50;;;;;;5047484;28;20076;-63
2021/03/26 10:11:12;;;;;;;15.48;10.63;;;25.40;32.90;;;;;;5046850;28;20021;-64
2021/03/26 10:14:03;;;;;;;15.32;9.85;;;24.90;33.30;;;;;;5042599;28;20482;-63
2021/03/26 10:16:44;;;;;;;15.65;10.45;;;24.30;34.40;;;;;;5044349;28;20033;-66
2021/03/26 10:19:22;;;;;;;17.75;11.13;;;23.60;35.40;;;;;;5018193;28;20125;-65
2021/03/26 10:21:56;;;;;;;14.82;8.93;;;23.20;36.00;;;;;;5046766;28;20037;-65
2021/03/26 10:24:57;;;;;;;13.95;7.82;;;22.70;36.30;;;;;;5054648;28;20017;-65
2021/03/26 10:27:31;;;;;;;13.25;8.27;;;22.00;36.70;;;;;;5022234;28;20877;-65
2021/03/26 10:30:30;;;;;;;11.85;7.78;;;21.50;37.40;;;;;;5045051;28;20127;-65
2021/03/26 10:33:06;;;;;;;13.00;8.23;;;21.00;38.60;;;;;;5036078;28;20448;-65
2021/03/26 10:35:33;;;;;;;14.57;8.13;;;20.60;39.30;;;;;;5045634;28;20467;-65
2021/03/26 10:38:01;;;;;;;15.80;8.02;;;20.30;39.90;;;;;;5045832;28;20187;-65
2021/03/26 10:40:32;;;;;;;16.17;8.23;;;20.00;40.70;;;;;;5042492;28;20089;-65
2021/03/26 10:43:15;;;;;;;12.77;7.30;;;19.90;40.90;;;;;;5043810;28;20117;-65
2021/03/26 10:45:44;;;;;;;13.30;7.03;;;19.80;41.40;;;;;;5049576;28;20037;-65
2021/03/26 10:48:20;;;;;;;13.05;6.97;;;20.00;40.80;;;;;;5060682;28;20431;-65
2021/03/26 10:51:16;;;;;;;11.10;5.57;;;20.10;40.40;;;;;;5051761;28;20479;-66
2021/03/26 10:53:50;;;;;;;11.32;5.82;;;20.00;40.40;;;;;;5045403;28;20420;-66
2021/03/26 10:56:24;;;;;;;10.68;5.45;;;19.90;40.50;;;;;;5043083;28;20040;-66
2021/03/26 10:58:58;;;;;;;13.20;5.78;;;19.80;40.80;;;;;;5046952;28;20475;-65
2021/03/26 11:01:25;;;;;;;9.75;4.95;;;19.80;40.70;;;;;;5055367;28;20029;-66
2021/03/26 11:04:08;;;;;;;9.60;4.63;;;19.80;40.40;;;;;;5075950;28;20021;-66
2021/03/26 11:06:37;;;;;;;9.88;4.90;;;19.60;40.30;;;;;;5051694;28;20029;-66
2021/03/26 11:09:10;;;;;;;10.45;4.43;;;20.10;39.90;;;;;;5047255;28;20402;-66
2021/03/26 11:11:44;;;;;;;10.05;5.30;;;20.50;38.50;;;;;;5044690;28;20025;-65
2021/03/26 11:14:19;;;;;;;9.68;4.95;;;20.10;38.50;;;;;;5042993;28;20098;-65
2021/03/26 11:17:01;;;;;;;6.85;3.90;;;19.60;39.70;;;;;;5059673;28;20426;-66
2021/03/26 11:19:37;;;;;;;8.25;4.60;;;19.60;40.30;;;;;;5045947;28;20085;-65
2021/03/26 11:22:14;;;;;;;9.10;3.90;;;20.90;38.50;;;;;;5044540;28;20040;-65
2021/03/26 11:24:43;;;;;;;9.55;4.05;;;21.20;37.10;;;;;;5047980;28;20079;-66
2021/03/26 11:27:22;;;;;;;10.32;4.05;;;20.90;37.00;;;;;;5042673;28;20025;-65
2021/03/26 11:30:13;;;;;;;12.07;4.53;;;20.70;37.50;;;;;;5051523;28;20037;-65
2021/03/26 11:32:44;;;;;;;9.00;4.07;;;20.70;37.40;;;;;;5048357;28;20029;-66
2021/03/26 11:35:15;;;;;;;6.53;3.20;;;20.60;37.40;;;;;;5043527;28;20033;-66
2021/03/26 11:37:49;;;;;;;9.05;3.80;;;20.40;37.40;;;;;;5044021;28;20087;-64
2021/03/26 11:40:20;;;;;;;9.50;3.85;;;20.20;37.60;;;;;;5051017;28;20142;-65
2021/03/26 11:43:05;;;;;;;7.28;3.17;;;21.50;36.60;;;;;;5065716;28;20631;-64
2021/03/26 11:45:43;;;;;;;7.47;3.78;;;22.10;35.20;;;;;;5038048;28;20025;-66
2021/03/26 11:48:36;;;;;;;8.63;3.53;;;22.40;34.80;;;;;;5041010;28;20033;-65
2021/03/26 11:51:21;;;;;;;9.07;3.50;;;22.80;33.80;;;;;;5060002;28;20032;-67
2021/03/26 11:53:58;;;;;;;8.80;3.35;;;22.80;33.80;;;;;;5059735;28;20025;-66
2021/03/26 11:56:37;;;;;;;8.27;3.15;;;22.70;34.30;;;;;;5041228;28;20804;-66
2021/03/26 11:59:11;;;;;;;7.60;3.25;;;22.70;35.10;;;;;;5040442;28;20116;-66
2021/03/26 12:02:02;;;;;;;10.05;3.45;;;22.80;33.70;;;;;;5045267;28;20032;-67
2021/03/26 12:04:38;;;;;;;8.35;3.30;;;22.40;34.30;;;;;;5050623;28;20100;-66
2021/03/26 12:07:11;;;;;;;11.23;3.83;;;22.10;34.60;;;;;;5046616;28;20048;-66
2021/03/26 12:09:42;;;;;;;10.65;3.13;;;21.80;35.00;;;;;;5050136;28;20156;-65
2021/03/26 12:12:22;;;;;;;7.93;4.00;;;21.60;35.50;;;;;;5047067;28;20741;-66
2021/03/26 12:14:58;;;;;;;7.60;3.35;;;21.50;36.40;;;;;;5047281;28;20183;-65
2021/03/26 12:17:36;;;;;;;12.10;4.03;;;21.40;35.50;;;;;;5049884;28;20025;-65
2021/03/26 12:20:27;;;;;;;8.43;3.05;;;21.40;35.70;;;;;;5049754;28;20483;-66
2021/03/26 12:22:58;;;;;;;11.80;4.47;;;21.50;35.50;;;;;;5034666;28;20063;-66
2021/03/26 12:25:37;;;;;;;8.07;3.35;;;21.50;34.80;;;;;;5044362;28;20035;-65
2021/03/26 12:28:22;;;;;;;8.90;3.42;;;21.20;35.60;;;;;;5045052;28;20052;-65
2021/03/26 12:31:03;;;;;;;8.60;4.13;;;21.10;35.90;;;;;;5062068;28;20033;-67
2021/03/26 12:33:53;;;;;;;8.77;3.60;;;21.10;36.20;;;;;;5037010;28;20028;-66
2021/03/26 12:36:38;;;;;;;7.55;3.10;;;21.00;36.30;;;;;;5042762;28;20086;-65
2021/03/26 12:39:27;;;;;;;8.98;3.53;;;21.10;35.90;;;;;;5031597;28;20091;-66
2021/03/26 12:42:20;;;;;;;6.95;3.20;;;21.20;36.10;;;;;;5047940;28;20406;-65
2021/03/26 12:45:08;;;;;;;8.20;3.47;;;21.40;35.80;;;;;;5058920;28;20401;-65
2021/03/26 12:47:43;;;;;;;7.18;3.25;;;21.40;35.40;;;;;;5045089;28;20033;-68
2021/03/26 12:50:48;;;;;;;6.47;3.00;;;21.50;35.40;;;;;;5046076;28;20044;-68
2021/03/26 12:53:29;;;;;;;8.77;3.55;;;21.50;35.20;;;;;;5018570;28;20491;-66
2021/03/26 12:56:29;;;;;;;8.98;3.47;;;21.50;35.10;;;;;;5035395;28;20923;-67
2021/03/26 12:59:07;;;;;;;8.35;3.38;;;21.20;35.70;;;;;;5054745;28;20033;-67
2021/03/26 13:01:54;;;;;;;7.38;3.67;;;21.10;35.80;;;;;;5042711;28;20037;-65
2021/03/26 13:04:55;;;;;;;10.02;3.97;;;21.00;36.40;;;;;;5048084;28;20402;-65
2021/03/26 13:07:32;;;;;;;9.38;3.92;;;20.90;36.30;;;;;;5028536;28;20070;-66
2021/03/26 13:10:24;;;;;;;9.27;4.25;;;20.80;36.00;;;;;;5046389;28;20029;-67
2021/03/26 13:12:51;;;;;;;12.40;4.28;;;20.60;36.10;;;;;;5062225;28;20081;-66
2021/03/26 13:15:25;;;;;;;7.53;4.38;;;20.60;36.80;;;;;;5047217;28;20478;-67
2021/03/26 13:18:05;;;;;;;10.82;4.32;;;20.50;36.70;;;;;;5049373;28;20033;-66
2021/03/26 13:20:51;;;;;;;9.27;4.40;;;20.60;37.30;;;;;;5046758;28;20669;-66
2021/03/26 13:23:22;;;;;;;11.25;4.78;;;20.50;37.20;;;;;;5043388;28;20025;-65
2021/03/26 13:25:57;;;;;;;13.25;5.65;;;20.50;36.60;;;;;;5047444;28;20259;-66
2021/03/26 13:28:36;;;;;;;9.30;4.60;;;20.50;36.80;;;;;;5045699;28;20050;-65
2021/03/26 13:31:21;;;;;;;8.27;4.85;;;20.50;36.90;;;;;;5038847;28;20132;-64
2021/03/26 13:33:55;;;;;;;8.90;5.03;;;20.60;37.00;;;;;;5045359;28;20092;-65
2021/03/26 13:36:31;;;;;;;9.15;4.65;;;20.60;36.70;;;;;;5048781;28;20021;-65